createdAt,value
2019-01-16T00:00:49.145Z,16.60
2019-01-16T00:03:21.938Z,14.27
2019-01-16T00:06:07.152Z,13.07
2019-01-16T00:08:37.214Z,11.63
2019-01-16T00:11:22.183Z,16.53
2019-01-16T00:14:03.984Z,18.83
2019-01-16T00:16:34.012Z,16.10
2019-01-16T00:19:07.039Z,14.47
2019-01-16T00:21:37.070Z,14.03
2019-01-16T00:24:10.141Z,15.90
2019-01-16T00:26:56.394Z,13.30
2019-01-16T00:29:29.387Z,12.67
2019-01-16T00:32:02.106Z,12.83
2019-01-16T00:34:48.479Z,13.20
2019-01-16T00:37:34.823Z,15.47
2019-01-16T00:40:18.056Z,16.07
2019-01-16T00:42:50.815Z,14.03
2019-01-16T00:45:36.036Z,13.53
2019-01-16T00:48:09.087Z,13.60
2019-01-16T00:50:39.107Z,14.07
2019-01-16T00:53:09.163Z,13.50
2019-01-16T00:55:48.017Z,13.17
2019-01-16T00:58:18.075Z,14.20
2019-01-16T01:00:57.129Z,13.23
2019-01-16T01:03:27.186Z,14.93
2019-01-16T01:05:57.207Z,13.20
2019-01-16T01:08:39.450Z,12.30
2019-01-16T01:11:25.811Z,12.43
2019-01-16T01:13:59.176Z,13.53
2019-01-16T01:16:29.204Z,12.23
2019-01-16T01:18:59.223Z,14.93
2019-01-16T01:21:29.279Z,18.83
2019-01-16T01:24:02.011Z,17.00
2019-01-16T01:26:47.132Z,15.93
2019-01-16T01:29:23.191Z,14.00
2019-01-16T01:31:53.251Z,12.87
2019-01-16T01:34:23.277Z,10.87
2019-01-16T01:37:05.275Z,14.67
2019-01-16T01:39:51.464Z,11.20
2019-01-16T01:42:33.444Z,16.73
2019-01-16T01:45:05.903Z,17.67
2019-01-16T01:47:39.111Z,11.93
2019-01-16T01:50:26.967Z,10.97
2019-01-16T01:52:57.018Z,11.93
2019-01-16T01:55:35.677Z,10.47
2019-01-16T01:58:21.040Z,14.47
2019-01-16T02:00:51.069Z,13.80
2019-01-16T02:03:24.063Z,11.07
2019-01-16T02:06:00.099Z,12.83
2019-01-16T02:08:32.571Z,11.60
2019-01-16T02:11:18.668Z,9.97
2019-01-16T02:13:51.656Z,13.93
2019-01-16T02:16:30.438Z,12.70
2019-01-16T02:19:09.465Z,12.60
2019-01-16T02:21:57.767Z,11.83
2019-01-16T02:24:36.663Z,12.07
2019-01-16T02:27:23.007Z,11.43
2019-01-16T02:29:56.044Z,13.13
2019-01-16T02:32:28.776Z,10.70
2019-01-16T02:35:04.956Z,12.20
2019-01-16T02:37:50.083Z,15.60
2019-01-16T02:40:22.979Z,13.23
2019-01-16T02:42:53.004Z,17.37
2019-01-16T02:45:23.054Z,15.63
2019-01-16T02:47:59.078Z,10.07
2019-01-16T02:50:29.123Z,11.67
2019-01-16T02:53:02.212Z,13.60
2019-01-16T02:55:48.822Z,12.83
2019-01-16T02:58:33.832Z,13.93
2019-01-16T03:01:06.599Z,11.90
2019-01-16T03:03:42.528Z,14.03
2019-01-16T03:06:15.315Z,10.97
2019-01-16T03:08:45.337Z,12.13
2019-01-16T03:11:18.059Z,13.27
2019-01-16T03:13:48.074Z,11.13
2019-01-16T03:16:23.804Z,12.17
2019-01-16T03:19:11.906Z,13.30
2019-01-16T03:21:41.955Z,12.17
2019-01-16T03:24:14.540Z,15.13
2019-01-16T03:26:50.393Z,13.60
2019-01-16T03:29:36.317Z,12.57
2019-01-16T03:32:06.350Z,13.53
2019-01-16T03:34:36.374Z,12.73
2019-01-16T03:37:06.385Z,12.20
2019-01-16T03:39:52.902Z,15.97
2019-01-16T03:42:25.897Z,11.23
2019-01-16T03:44:55.966Z,13.93
2019-01-16T03:47:31.800Z,13.03
2019-01-16T03:50:07.681Z,13.27
2019-01-16T03:52:40.687Z,15.87
2019-01-16T03:55:26.766Z,11.33
2019-01-16T03:58:02.494Z,11.97
2019-01-16T04:00:32.538Z,13.97
2019-01-16T04:03:17.842Z,13.00
2019-01-16T04:06:02.862Z,14.63
2019-01-16T04:08:47.849Z,15.90
2019-01-16T04:11:23.798Z,18.27
2019-01-16T04:13:53.816Z,13.53
2019-01-16T04:16:23.868Z,18.63
2019-01-16T04:18:56.915Z,13.53
2019-01-16T04:21:29.937Z,16.63
2019-01-16T04:24:09.167Z,13.13
2019-01-16T04:27:06.669Z,18.37
2019-01-16T04:29:52.677Z,15.03
2019-01-16T04:32:31.613Z,13.37
2019-01-16T04:35:04.478Z,11.70
2019-01-16T04:37:50.777Z,14.83
2019-01-16T04:40:32.934Z,16.33
2019-01-16T04:43:05.655Z,18.23
2019-01-16T04:45:53.966Z,15.93
2019-01-16T04:48:26.577Z,15.33
2019-01-16T04:51:05.321Z,12.23
2019-01-16T04:53:38.062Z,12.80
2019-01-16T04:56:23.227Z,16.13
2019-01-16T04:58:59.013Z,13.43
2019-01-16T05:01:35.026Z,14.23
2019-01-16T05:04:20.326Z,15.50
2019-01-16T05:06:50.805Z,12.33
2019-01-16T05:09:26.922Z,17.40
2019-01-16T05:11:56.943Z,14.33
2019-01-16T05:14:26.985Z,14.80
2019-01-16T05:17:08.977Z,17.50
2019-01-16T05:19:55.197Z,14.90
2019-01-16T05:22:31.235Z,13.37
2019-01-16T05:25:10.437Z,13.77
2019-01-16T05:27:48.962Z,12.17
2019-01-16T05:30:24.531Z,11.73
2019-01-16T05:32:57.433Z,12.70
2019-01-16T05:35:42.498Z,18.40
2019-01-16T05:38:21.457Z,15.20
2019-01-16T05:40:51.489Z,16.47
2019-01-16T05:43:30.293Z,13.70
2019-01-16T05:46:00.338Z,18.40
2019-01-16T05:48:48.645Z,15.03
2019-01-16T05:51:18.691Z,14.83
2019-01-16T05:54:04.860Z,14.80
2019-01-16T05:56:34.910Z,16.30
2019-01-16T05:59:17.213Z,17.37
2019-01-16T06:02:03.459Z,14.53
2019-01-16T06:04:42.712Z,15.43
2019-01-16T06:07:28.829Z,13.63
2019-01-16T06:10:04.881Z,13.83
2019-01-16T06:12:40.640Z,13.37
2019-01-16T06:15:13.341Z,17.17
2019-01-16T06:17:43.360Z,15.73
2019-01-16T06:20:13.410Z,16.00
2019-01-16T06:22:43.434Z,19.93
2019-01-16T06:25:28.672Z,16.47
2019-01-16T06:27:58.742Z,17.97
2019-01-16T06:30:28.754Z,15.27
2019-01-16T06:33:07.595Z,16.30
2019-01-16T06:35:43.576Z,15.97
2019-01-16T06:38:19.410Z,18.83
2019-01-16T06:41:01.739Z,16.37
2019-01-16T06:43:31.914Z,16.80
2019-01-16T06:46:02.062Z,18.57
2019-01-16T06:48:34.775Z,19.17
2019-01-16T06:51:10.590Z,16.70
2019-01-16T06:53:58.972Z,14.77
2019-01-16T06:56:29.034Z,18.80
2019-01-16T06:59:08.895Z,14.10
2019-01-16T07:01:39.041Z,16.83
2019-01-16T07:04:25.900Z,15.53
2019-01-16T07:06:58.719Z,14.63
2019-01-16T07:09:48.814Z,13.43
2019-01-16T07:12:24.850Z,15.23
2019-01-16T07:15:07.423Z,18.00
2019-01-16T07:17:50.524Z,17.17
2019-01-16T07:20:38.639Z,14.93
2019-01-16T07:23:14.301Z,18.93
2019-01-16T07:26:02.867Z,18.47
2019-01-16T07:28:38.944Z,16.00
2019-01-16T07:31:20.648Z,16.37
2019-01-16T07:33:50.782Z,17.23
2019-01-16T07:36:37.413Z,17.00
2019-01-16T07:39:09.380Z,16.90
2019-01-16T07:41:45.097Z,19.93
2019-01-16T07:44:33.538Z,17.63
2019-01-16T07:47:19.580Z,18.57
2019-01-16T07:50:06.205Z,15.90
2019-01-16T07:52:54.038Z,16.20
2019-01-16T07:55:27.079Z,15.20
2019-01-16T07:58:05.963Z,18.43
2019-01-16T08:00:52.216Z,17.23
2019-01-16T08:03:38.574Z,16.03
2019-01-16T08:06:23.327Z,14.37
2019-01-16T08:09:02.165Z,16.50
2019-01-16T08:11:34.873Z,17.70
2019-01-16T08:14:04.919Z,14.10
2019-01-16T08:16:37.925Z,19.17
2019-01-16T08:19:23.894Z,16.03
2019-01-16T08:22:02.605Z,14.47
2019-01-16T08:24:47.445Z,15.30
2019-01-16T08:27:33.724Z,15.60
2019-01-16T08:30:03.746Z,16.23
2019-01-16T08:32:33.789Z,16.37
2019-01-16T08:35:09.596Z,14.33
2019-01-16T08:37:42.615Z,12.90
2019-01-16T08:40:21.777Z,16.70
2019-01-16T08:43:07.934Z,12.63
2019-01-16T08:45:46.755Z,10.67
2019-01-16T08:48:33.310Z,11.97
2019-01-16T08:51:09.040Z,12.97
2019-01-16T08:53:39.154Z,12.83
2019-01-16T08:56:18.061Z,13.27
2019-01-16T08:58:51.188Z,12.20
2019-01-16T09:01:33.121Z,13.07
2019-01-16T09:04:05.999Z,13.17
2019-01-16T09:06:38.677Z,11.57
2019-01-16T09:09:28.705Z,12.13
2019-01-16T09:12:13.873Z,18.50
2019-01-16T09:14:43.921Z,10.10
2019-01-16T09:17:25.856Z,14.40
2019-01-16T09:20:10.790Z,11.07
2019-01-16T09:22:40.804Z,11.73
2019-01-16T09:25:16.551Z,13.17
2019-01-16T09:27:52.074Z,11.50
2019-01-16T09:30:38.307Z,17.70
2019-01-16T09:33:24.462Z,14.60
2019-01-16T09:36:09.164Z,14.07
2019-01-16T09:38:39.219Z,12.30
2019-01-16T09:41:14.719Z,12.43
2019-01-16T09:43:44.762Z,10.70
2019-01-16T09:46:30.984Z,17.50
2019-01-16T09:49:16.108Z,18.23
2019-01-16T09:51:48.857Z,13.27
2019-01-16T09:54:33.840Z,13.13
2019-01-16T09:57:19.931Z,14.63
2019-01-16T10:00:02.014Z,12.63
2019-01-16T10:02:32.030Z,12.10
2019-01-16T10:05:10.867Z,13.37
2019-01-16T10:07:40.882Z,12.63
2019-01-16T10:10:31.393Z,15.20
2019-01-16T10:13:13.318Z,9.83
2019-01-16T10:15:43.362Z,14.60
2019-01-16T10:18:13.374Z,11.67
2019-01-16T10:20:46.510Z,14.90
2019-01-16T10:23:25.170Z,16.77
2019-01-16T10:25:55.226Z,13.90
2019-01-16T10:28:25.233Z,14.23
2019-01-16T10:31:10.561Z,15.33
2019-01-16T10:33:46.318Z,11.10
2019-01-16T10:36:32.324Z,13.97
2019-01-16T10:39:05.353Z,12.27
2019-01-16T10:41:38.053Z,15.63
2019-01-16T10:44:24.096Z,14.73
2019-01-16T10:47:06.335Z,16.13
2019-01-16T10:49:36.385Z,14.53
2019-01-16T10:52:18.386Z,11.17
2019-01-16T10:55:06.446Z,11.93
2019-01-16T10:57:39.465Z,14.77
2019-01-16T11:00:21.877Z,14.37
2019-01-16T11:02:51.910Z,14.70
2019-01-16T11:05:25.025Z,14.40
2019-01-16T11:07:55.049Z,12.53
2019-01-16T11:10:33.862Z,13.87
2019-01-16T11:13:06.567Z,17.13
2019-01-16T11:15:42.321Z,17.00
2019-01-16T11:18:12.357Z,12.97
2019-01-16T11:20:45.169Z,15.20
2019-01-16T11:23:31.293Z,13.73
2019-01-16T11:26:04.029Z,13.20
2019-01-16T11:28:36.584Z,10.90
2019-01-16T11:31:12.461Z,14.10
2019-01-16T11:33:57.630Z,17.87
2019-01-16T11:36:36.416Z,12.37
2019-01-16T11:39:14.917Z,12.33
2019-01-16T11:41:47.642Z,14.57
2019-01-16T11:44:20.605Z,11.97
2019-01-16T11:46:59.405Z,18.23
2019-01-16T11:49:45.543Z,11.40
2019-01-16T11:52:32.236Z,15.33
2019-01-16T11:55:08.342Z,17.43
2019-01-16T11:57:47.286Z,16.27
2019-01-16T12:00:22.964Z,14.50
2019-01-16T12:02:55.689Z,17.93
2019-01-16T12:05:25.711Z,14.43
2019-01-16T12:08:01.502Z,14.20
2019-01-16T12:10:47.746Z,15.07
2019-01-16T12:13:27.035Z,15.73
2019-01-16T12:16:09.256Z,13.87
2019-01-16T12:18:45.004Z,16.87
2019-01-16T12:21:31.431Z,12.47
2019-01-16T12:24:01.446Z,14.23
2019-01-16T12:26:34.221Z,13.20
2019-01-16T12:29:12.940Z,16.10
2019-01-16T12:31:42.982Z,18.13
2019-01-16T12:34:31.210Z,15.67
2019-01-16T12:37:10.201Z,16.30
2019-01-16T12:39:49.326Z,15.97
2019-01-16T12:42:22.037Z,13.67
2019-01-16T12:44:54.626Z,16.17
2019-01-16T12:47:30.578Z,12.87
2019-01-16T12:50:03.126Z,15.03
2019-01-16T12:52:54.093Z,17.20
2019-01-16T12:55:28.307Z,15.33
2019-01-16T12:58:13.545Z,16.93
2019-01-16T13:00:56.965Z,17.70
2019-01-16T13:03:32.793Z,13.17
2019-01-16T13:06:02.809Z,14.17
2019-01-16T13:08:41.826Z,16.70
2019-01-16T13:11:11.841Z,18.23
2019-01-16T13:13:41.885Z,16.27
2019-01-16T13:16:26.917Z,17.23
2019-01-16T13:19:13.170Z,13.63
2019-01-16T13:21:55.098Z,15.13
2019-01-16T13:24:34.061Z,13.50
2019-01-16T13:27:22.345Z,17.93
2019-01-16T13:30:08.960Z,16.73
2019-01-16T13:32:54.868Z,17.37
2019-01-16T13:35:27.590Z,13.40
2019-01-16T13:38:13.930Z,17.50
2019-01-16T13:40:43.980Z,18.57
2019-01-16T13:43:32.083Z,14.87
2019-01-16T13:46:07.867Z,14.83
2019-01-16T13:48:37.922Z,13.90
2019-01-16T13:51:10.357Z,17.10
2019-01-16T13:53:43.119Z,13.67
2019-01-16T13:56:22.271Z,12.30
2019-01-16T13:58:55.021Z,16.60
2019-01-16T14:01:28.189Z,15.93
2019-01-16T14:04:04.113Z,16.70
2019-01-16T14:06:34.126Z,12.87
2019-01-16T14:09:16.369Z,17.57
2019-01-16T14:12:04.648Z,11.13
2019-01-16T14:14:34.706Z,13.33
2019-01-16T14:17:31.119Z,16.00
2019-01-16T14:20:13.473Z,13.87
2019-01-16T14:22:57.794Z,15.80
2019-01-16T14:25:50.838Z,13.80
2019-01-16T14:28:23.558Z,16.70
2019-01-16T14:30:59.394Z,18.37
2019-01-16T14:33:45.612Z,15.80
2019-01-16T14:36:19.192Z,16.97
2019-01-16T14:38:58.384Z,18.93
2019-01-16T14:41:34.451Z,14.43
2019-01-16T14:44:10.678Z,19.80
2019-01-16T14:46:40.803Z,15.37
2019-01-16T14:49:13.759Z,14.30
2019-01-16T14:51:46.838Z,15.30
2019-01-16T14:54:31.617Z,17.20
2019-01-16T14:57:02.599Z,18.30
2019-01-16T14:59:48.855Z,18.00
2019-01-16T15:02:24.853Z,16.33
2019-01-16T15:05:04.059Z,12.37
2019-01-16T15:07:37.085Z,15.77
2019-01-16T15:10:10.783Z,14.50
2019-01-16T15:12:44.616Z,16.67
2019-01-16T15:15:30.829Z,16.43
2019-01-16T15:18:09.603Z,26.27
2019-01-16T15:20:48.762Z,23.20
2019-01-16T15:23:18.781Z,27.30
2019-01-16T15:25:54.853Z,20.63
2019-01-16T15:28:34.052Z,21.03
2019-01-16T15:31:04.169Z,18.77
2019-01-16T15:33:43.594Z,14.97
2019-01-16T15:36:13.695Z,17.13
2019-01-16T15:38:46.458Z,13.40
2019-01-16T15:41:31.616Z,14.00
2019-01-16T15:44:01.675Z,15.50
2019-01-16T15:46:43.933Z,11.70
2019-01-16T15:49:30.825Z,15.97
2019-01-16T15:52:13.265Z,17.83
2019-01-16T15:54:43.777Z,12.57
2019-01-16T15:57:28.844Z,13.90
2019-01-16T15:59:58.916Z,15.70
2019-01-16T16:02:29.225Z,17.37
2019-01-16T16:04:59.388Z,18.57
2019-01-16T16:07:29.439Z,16.40
2019-01-16T16:10:02.396Z,20.47
2019-01-16T16:12:35.139Z,16.73
2019-01-16T16:15:18.047Z,17.63
2019-01-16T16:17:48.577Z,16.20
2019-01-16T16:20:33.349Z,16.67
2019-01-16T16:23:03.567Z,13.87
2019-01-16T16:25:33.777Z,14.40
2019-01-16T16:28:12.835Z,13.70
2019-01-16T16:30:42.908Z,15.23
2019-01-16T16:33:19.203Z,16.73
2019-01-16T16:35:55.487Z,20.27
2019-01-16T16:38:31.733Z,22.00
2019-01-16T16:41:10.899Z,17.83
2019-01-16T16:43:40.997Z,19.17
2019-01-16T16:46:22.946Z,13.27
2019-01-16T16:48:53.007Z,16.60
2019-01-16T16:51:31.900Z,16.63
2019-01-16T16:54:18.236Z,24.33
2019-01-16T16:57:00.274Z,16.30
2019-01-16T16:59:46.617Z,14.50
2019-01-16T17:02:25.324Z,23.13
2019-01-16T17:05:04.468Z,20.70
2019-01-16T17:07:34.501Z,18.50
2019-01-16T17:10:20.420Z,27.20
2019-01-16T17:12:51.721Z,17.63
2019-01-16T17:15:21.786Z,18.93
2019-01-16T17:18:08.225Z,18.47
2019-01-16T17:20:56.390Z,21.60
2019-01-16T17:23:35.122Z,22.63
2019-01-16T17:26:08.301Z,24.20
2019-01-16T17:28:41.023Z,20.37
2019-01-16T17:31:20.048Z,21.27
2019-01-16T17:33:56.004Z,18.30
2019-01-16T17:36:26.049Z,22.03
2019-01-16T17:38:56.069Z,20.37
2019-01-16T17:41:28.812Z,18.37
2019-01-16T17:44:04.626Z,21.87
2019-01-16T17:46:49.646Z,21.97
2019-01-16T17:49:25.400Z,22.63
2019-01-16T17:52:13.750Z,19.13
2019-01-16T17:55:02.021Z,18.50
2019-01-16T17:57:37.917Z,20.73
2019-01-16T18:00:31.846Z,22.00
2019-01-16T18:03:01.993Z,22.40
2019-01-16T18:05:32.025Z,19.83
2019-01-16T18:08:02.080Z,18.97
2019-01-16T18:10:34.985Z,16.30
2019-01-16T18:13:06.460Z,18.33
2019-01-16T18:15:52.714Z,25.60
2019-01-16T18:18:22.839Z,16.87
2019-01-16T18:20:55.870Z,19.87
2019-01-16T18:23:42.350Z,18.40
2019-01-16T18:26:18.151Z,16.90
2019-01-16T18:29:03.245Z,15.47
2019-01-16T18:31:38.910Z,20.93
2019-01-16T18:34:15.876Z,19.40
2019-01-16T18:36:54.688Z,18.57
2019-01-16T18:39:45.216Z,21.37
2019-01-16T18:42:15.408Z,22.53
2019-01-16T18:44:48.313Z,19.20
2019-01-16T18:47:18.383Z,16.87
2019-01-16T18:49:48.409Z,16.07
2019-01-16T18:52:18.469Z,18.57
2019-01-16T18:55:00.763Z,23.17
2019-01-16T18:57:33.690Z,20.30
2019-01-16T19:00:03.869Z,25.63
2019-01-16T19:02:50.415Z,23.67
2019-01-16T19:05:20.429Z,21.70
2019-01-16T19:07:56.278Z,25.93
2019-01-16T19:10:35.286Z,22.67
2019-01-16T19:16:01.790Z,22.13
2019-01-16T19:18:46.868Z,18.87
2019-01-16T19:21:19.839Z,18.90
2019-01-16T19:23:55.677Z,24.67
2019-01-16T19:26:37.665Z,21.03
2019-01-16T19:29:11.017Z,27.47
2019-01-16T19:31:41.236Z,20.97
2019-01-16T19:34:11.976Z,23.60
2019-01-16T19:36:47.746Z,23.57
2019-01-16T19:39:36.139Z,18.63
2019-01-16T19:42:06.221Z,35.47
2019-01-16T19:44:51.174Z,24.80
2019-01-16T19:47:26.789Z,25.33
2019-01-16T19:49:59.778Z,28.60
2019-01-16T19:55:31.055Z,53.73
2019-01-16T19:58:13.187Z,53.07
2019-01-16T20:00:46.102Z,53.27
2019-01-16T20:03:18.984Z,44.00
2019-01-16T20:05:49.335Z,30.63
2019-01-16T20:08:24.902Z,32.73
2019-01-16T20:11:13.039Z,46.93
2019-01-16T20:16:45.460Z,39.60
2019-01-16T20:19:33.714Z,34.50
2019-01-16T20:22:04.834Z,38.43
2019-01-16T20:24:34.920Z,42.03
2019-01-16T20:27:20.956Z,47.30
2019-01-16T20:29:51.413Z,39.83
2019-01-16T20:32:34.438Z,37.03
2019-01-16T20:35:19.480Z,31.53
2019-01-16T20:37:55.184Z,37.97
2019-01-16T20:40:25.700Z,30.53
2019-01-16T20:43:11.339Z,28.83
2019-01-16T20:45:42.190Z,44.13
2019-01-16T20:48:24.428Z,37.73
2019-01-16T20:50:54.833Z,30.77
2019-01-16T20:53:25.153Z,28.43
2019-01-16T20:55:58.852Z,33.87
2019-01-16T20:58:44.399Z,32.37
2019-01-16T21:01:15.157Z,41.97
2019-01-16T21:03:51.763Z,52.87
2019-01-16T21:06:36.932Z,50.63
2019-01-16T21:09:11.949Z,22.67
2019-01-16T21:11:57.364Z,20.73
2019-01-16T21:14:47.260Z,21.80
2019-01-16T21:17:46.205Z,23.60
2019-01-16T21:20:16.501Z,21.37
2019-01-16T21:22:52.384Z,21.70
2019-01-16T21:25:29.554Z,18.40
2019-01-16T21:28:16.218Z,20.77
2019-01-16T21:30:58.310Z,20.70
2019-01-16T21:33:29.948Z,22.27
2019-01-16T21:36:03.741Z,21.13
2019-01-16T21:38:39.996Z,25.43
2019-01-16T21:41:16.407Z,27.83
2019-01-16T21:44:02.610Z,30.70
2019-01-16T21:46:49.596Z,23.43
2019-01-16T21:49:23.866Z,24.20
2019-01-16T21:51:56.627Z,21.67
2019-01-16T21:54:38.673Z,32.60
2019-01-16T21:57:26.890Z,87.83
2019-01-16T22:00:05.791Z,85.80
2019-01-16T22:02:45.021Z,51.37
2019-01-16T22:05:18.141Z,47.73
2019-01-16T22:07:57.312Z,44.47
2019-01-16T22:10:30.541Z,33.70
2019-01-16T22:13:10.043Z,70.30
2019-01-16T22:15:42.956Z,30.97
2019-01-16T22:18:15.430Z,28.10
2019-01-16T22:20:54.719Z,25.30
2019-01-16T22:23:24.790Z,22.57
2019-01-16T22:25:57.822Z,19.30
2019-01-16T22:28:28.647Z,15.80
2019-01-16T22:31:08.291Z,16.60
2019-01-16T22:33:54.326Z,15.07
2019-01-16T22:36:48.007Z,15.60
2019-01-16T22:39:48.572Z,41.10
2019-01-16T22:42:25.692Z,25.07
2019-01-16T22:45:08.203Z,17.57
2019-01-16T22:47:41.503Z,16.20
2019-01-16T22:50:43.264Z,17.00
2019-01-16T22:53:16.016Z,14.23
2019-01-16T22:55:55.291Z,12.40
2019-01-16T22:58:29.087Z,17.70
2019-01-16T23:01:10.425Z,15.00
2019-01-16T23:03:45.800Z,20.20
2019-01-16T23:06:22.301Z,15.67
2019-01-16T23:08:55.537Z,13.27
2019-01-16T23:11:33.984Z,12.33
2019-01-16T23:14:04.372Z,15.07
2019-01-16T23:16:48.146Z,13.57
2019-01-16T23:19:40.307Z,18.97
2019-01-16T23:22:14.319Z,19.37
2019-01-16T23:24:49.204Z,18.63
2019-01-16T23:27:21.882Z,14.40
2019-01-16T23:29:58.842Z,15.47
2019-01-16T23:32:33.469Z,14.87
2019-01-16T23:35:21.771Z,14.63
2019-01-16T23:38:09.153Z,15.80
2019-01-16T23:40:40.126Z,16.70
2019-01-16T23:43:12.948Z,16.77
2019-01-16T23:45:48.904Z,15.33
2019-01-16T23:48:30.921Z,14.80
2019-01-16T23:51:17.030Z,16.40
2019-01-16T23:53:56.269Z,19.90
2019-01-16T23:56:24.784Z,14.67
2019-01-16T23:59:00.562Z,16.03
